Terminal Aerodrome Forecast
Issued by NWS

Home | Current Version | Previous Version | Text Only | Print | Product List | Glossary On
Versions: 1 2 3 4 5 6 7 8 9 10 11 12 13 14 15 16 17 18 19 20 21 22 23 24 25 26 27 28 29
000
FTAK31 PANC 201122
TAFASN
TAF
PASN 201122Z 2012/2112 VRB05KT P6SM OVC100
     FM201500 05015G25KT P6SM OVC015
     FM202200 06022G33KT P6SM -RA BKN007
     FM210300 05028G38KT 3SM -RA BR OVC005
     FM210900 05025G35KT 4SM -RA BR SCT007 OVC015=

USA.gov is the U.S. government's official web portal to all federal, state and local government web resources and services.